Time;durP1;ratioP1;P1;durP2;ratioP2;P2;SDS_P1;SDS_P2;PMS_P1;PMS_P2;Temp;Humidity;BMP_temperature;BMP_pressure;BME280_temperature;BME280_humidity;BME280_pressure;Samples;Min_cycle;Max_cycle;Signal;HPM_P1;HPM_P2
2022/12/31 00:01:10;;;;;;;6.30;2.52;;;;;;;9.70;71.18;102395.60;1885675;75;21037;-59
2022/12/31 00:03:40;;;;;;;4.05;1.47;;;;;;;9.71;71.13;102389.89;1902986;75;21113;-57
2022/12/31 00:06:27;;;;;;;5.67;1.50;;;;;;;9.71;71.02;102396.47;1901213;75;21069;-60
2022/12/31 00:08:58;;;;;;;6.58;1.70;;;;;;;9.75;70.92;102398.17;1902238;75;21062;-58
2022/12/31 00:11:28;;;;;;;4.80;1.20;;;;;;;9.76;70.86;102398.17;1902186;74;21115;-60
2022/12/31 00:13:57;;;;;;;5.67;1.20;;;;;;;9.77;70.84;102390.69;1899891;75;21053;-57
2022/12/31 00:16:28;;;;;;;4.03;1.20;;;;;;;9.77;70.86;102388.51;1901828;75;21159;-56
2022/12/31 00:18:59;;;;;;;5.53;1.85;;;;;;;9.76;70.92;102380.20;1914656;74;21159;-57
2022/12/31 00:21:30;;;;;;;3.80;1.30;;;;;;;9.75;70.94;102395.55;1941011;74;21014;-57
2022/12/31 00:23:59;;;;;;;2.98;1.35;;;;;;;9.76;70.95;102390.73;1921763;74;21496;-56
2022/12/31 00:26:30;;;;;;;3.33;1.80;;;;;;;9.80;70.84;102392.44;1896661;75;21110;-57
2022/12/31 00:29:00;;;;;;;5.25;1.55;;;;;;;9.83;70.74;102391.07;1896900;75;21011;-56
2022/12/31 00:31:34;;;;;;;3.72;1.72;;;;;;;9.85;70.68;102386.70;1887903;75;21497;-57
2022/12/31 00:34:04;;;;;;;2.87;1.00;;;;;;;9.85;70.62;102384.06;1897434;75;21048;-57
2022/12/31 00:36:36;;;;;;;5.05;1.47;;;;;;;9.85;70.61;102386.24;1899397;75;21054;-57
2022/12/31 00:39:07;;;;;;;3.25;1.07;;;;;;;9.86;70.57;102383.16;1890801;75;21109;-58
2022/12/31 00:41:36;;;;;;;4.47;1.57;;;;;;;9.86;70.52;102389.73;1903869;75;21085;-57
2022/12/31 00:44:05;;;;;;;5.47;1.75;;;;;;;9.85;70.51;102388.02;1903948;75;21018;-53
2022/12/31 00:46:33;;;;;;;3.22;1.37;;;;;;;9.83;70.52;102374.86;1903871;75;21473;-52
2022/12/31 00:49:02;;;;;;;2.27;1.40;;;;;;;9.82;70.50;102376.19;1918190;74;21046;-53
2022/12/31 00:51:30;;;;;;;1.70;1.00;;;;;;;9.81;70.46;102367.44;1939952;74;21088;-54
2022/12/31 00:53:59;;;;;;;2.02;1.15;;;;;;;9.81;70.39;102369.17;1940586;74;21111;-53
2022/12/31 00:56:30;;;;;;;3.12;1.25;;;;;;;9.77;70.34;102372.72;1937710;74;21476;-53
2022/12/31 00:59:00;;;;;;;5.37;1.70;;;;;;;9.74;70.34;102364.85;1933061;74;21132;-53
2022/12/31 01:01:32;;;;;;;4.53;1.32;;;;;;;9.72;70.30;102356.11;1930683;74;21034;-53
2022/12/31 01:04:04;;;;;;;2.58;1.47;;;;;;;9.69;70.17;102353.53;1929843;73;21543;-51
2022/12/31 01:06:33;;;;;;;5.50;1.20;;;;;;;9.69;70.07;102350.45;1930715;73;21058;-52
2022/12/31 01:09:01;;;;;;;3.50;1.40;;;;;;;9.68;69.94;102338.62;1930633;74;21035;-52
2022/12/31 01:11:30;;;;;;;1.57;1.05;;;;;;;9.66;69.83;102343.47;1931922;74;21078;-48
2022/12/31 01:14:02;;;;;;;3.15;1.10;;;;;;;9.68;69.78;102346.05;1896090;75;21129;-49
2022/12/31 01:16:36;;;;;;;6.42;1.32;;;;;;;9.65;69.74;102335.13;1897520;75;21035;-53
2022/12/31 01:19:07;;;;;;;2.58;1.42;;;;;;;9.71;69.70;102343.86;1896869;75;21638;-53
2022/12/31 01:21:38;;;;;;;1.50;1.17;;;;;;;9.69;69.64;102343.01;1897498;75;21079;-51
2022/12/31 01:24:08;;;;;;;3.22;1.37;;;;;;;9.64;69.65;102341.27;1897704;75;21067;-53
2022/12/31 01:26:37;;;;;;;6.85;1.87;;;;;;;9.65;69.77;102340.84;1897641;75;21115;-52
2022/12/31 01:29:07;;;;;;;4.20;1.77;;;;;;;9.65;69.82;102325.93;1897482;75;21110;-51
2022/12/31 01:31:37;;;;;;;4.08;1.20;;;;;;;9.69;69.81;102328.54;1897592;75;21519;-50
2022/12/31 01:34:06;;;;;;;2.05;1.30;;;;;;;9.72;69.76;102329.80;1897639;75;21483;-48
2022/12/31 01:36:37;;;;;;;2.35;1.30;;;;;;;9.75;69.86;102332.41;1897506;75;21451;-51
2022/12/31 01:39:07;;;;;;;4.95;1.32;;;;;;;9.81;69.80;102333.66;1875451;75;21493;-47
2022/12/31 01:41:42;;;;;;;2.20;1.27;;;;;;;9.82;69.58;102327.52;1865222;77;21156;-49
2022/12/31 01:44:28;;;;;;;4.08;1.50;;;;;;;9.86;69.46;102327.91;1865126;77;21107;-47
2022/12/31 01:47:02;;;;;;;4.67;1.80;;;;;;;9.88;69.45;102320.87;1867497;75;21118;-49
2022/12/31 01:49:40;;;;;;;1.45;0.90;;;;;;;9.90;69.37;102320.41;1865336;77;21096;-48
2022/12/31 01:52:28;;;;;;;1.90;0.90;;;;;;;9.97;68.99;102340.95;1864223;77;21059;-48
2022/12/31 01:55:06;;;;;;;2.25;1.30;;;;;;;10.01;68.92;102338.70;1865474;77;21486;-50
2022/12/31 01:57:36;;;;;;;4.87;1.45;;;;;;;10.04;68.87;102338.23;1878883;75;21454;-52
2022/12/31 02:00:08;;;;;;;3.10;1.27;;;;;;;10.07;68.66;102343.92;1875468;75;21071;-52
2022/12/31 02:02:37;;;;;;;2.30;1.07;;;;;;;10.10;68.07;102333.80;1866847;75;21043;-50
2022/12/31 02:05:17;;;;;;;1.35;0.98;;;;;;;10.14;67.51;102324.97;1905065;74;21116;-49
2022/12/31 02:07:48;;;;;;;1.98;1.20;;;;;;;10.18;67.61;102318.77;1929342;74;21086;-49
2022/12/31 02:10:17;;;;;;;3.77;1.57;;;;;;;10.19;67.58;102331.05;1932889;74;21146;-49
2022/12/31 02:12:47;;;;;;;2.35;1.35;;;;;;;10.20;67.66;102322.28;1937263;74;21551;-49
2022/12/31 02:15:16;;;;;;;5.00;1.37;;;;;;;10.20;67.77;102312.61;1927668;74;21048;-49
2022/12/31 02:18:00;;;;;;;3.02;1.47;;;;;;;10.21;67.89;102321.37;1915004;74;21481;-51
2022/12/31 02:20:31;;;;;;;3.98;1.30;;;;;;;10.20;68.06;102320.97;1889669;75;21125;-48
2022/12/31 02:23:28;;;;;;;2.37;1.00;;;;;;;10.22;68.37;102315.23;1897518;75;21040;-50
2022/12/31 02:26:19;;;;;;;2.37;0.98;;;;;;;10.22;68.44;102323.12;1867396;75;21600;-48
2022/12/31 02:29:00;;;;;;;3.95;1.80;;;;;;;10.23;68.72;102333.61;1882554;75;21102;-50
2022/12/31 02:31:34;;;;;;;2.75;1.25;;;;;;;10.25;68.81;102337.55;1897419;75;21039;-48
2022/12/31 02:34:06;;;;;;;5.60;1.35;;;;;;;10.29;68.79;102322.17;1897548;75;21188;-48
2022/12/31 02:36:37;;;;;;;3.08;1.35;;;;;;;10.34;68.77;102328.25;1897575;75;21008;-49
2022/12/31 02:39:07;;;;;;;6.50;2.00;;;;;;;10.40;68.74;102323.35;1895335;74;21089;-61
2022/12/31 02:41:52;;;;;;;4.50;1.50;;;;;;;10.41;68.80;102311.48;1884350;75;21105;-58
2022/12/31 02:44:24;;;;;;;4.40;1.27;;;;;;;10.43;68.86;102328.14;1895203;75;21075;-56
2022/12/31 02:47:07;;;;;;;2.55;1.50;;;;;;;10.43;68.87;102327.27;1868324;75;21502;-56
2022/12/31 02:49:59;;;;;;;2.98;1.70;;;;;;;10.43;68.95;102320.23;1867244;75;21346;-54
2022/12/31 02:52:33;;;;;;;7.47;1.90;;;;;;;10.45;69.03;102321.53;1864608;77;21506;-55
2022/12/31 02:55:21;;;;;;;4.10;1.75;;;;;;;10.45;69.21;102331.20;1865334;77;21129;-56
2022/12/31 02:58:04;;;;;;;3.55;1.45;;;;;;;10.41;69.36;102333.88;1877883;75;21549;-59
2022/12/31 03:03:24;;;;;;;6.53;2.00;;;;;;;10.42;69.71;102336.95;1876320;76;21542;-62
2022/12/31 03:05:53;;;;;;;3.95;1.77;;;;;;;10.40;69.90;102351.90;1873558;76;21209;-60
2022/12/31 03:08:23;;;;;;;5.03;2.45;;;;;;;10.38;70.18;102352.36;1879750;76;21067;-60
2022/12/31 03:10:52;;;;;;;4.53;1.95;;;;;;;10.39;70.38;102358.03;1862059;77;21102;-60
2022/12/31 03:13:21;;;;;;;2.65;1.40;;;;;;;10.40;70.42;102346.62;1883383;76;21060;-59
2022/12/31 03:15:50;;;;;;;8.33;1.75;;;;;;;10.40;70.45;102367.70;1893907;76;21130;-58
2022/12/31 03:22:26;;;;;;;5.83;2.10;;;;;;;10.41;70.38;102358.89;1864144;76;21141;-58
2022/12/31 03:23:42;;;;;;;7.17;1.42;;;;;;;10.40;70.47;102376.91;1893813;76;21040;-58
2022/12/31 03:26:12;;;;;;;4.45;1.52;;;;;;;10.41;70.56;102369.42;1863810;76;21063;-58
2022/12/31 03:28:47;;;;;;;3.50;1.30;;;;;;;10.43;70.60;102374.22;1862029;77;21506;-59
2022/12/31 03:31:13;;;;;;;3.22;1.72;;;;;;;10.46;70.68;102381.66;1860217;76;21059;-58
2022/12/31 03:33:42;;;;;;;2.15;1.22;;;;;;;10.48;70.72;102383.85;1866535;74;21071;-58
2022/12/31 03:36:14;;;;;;;4.30;1.67;;;;;;;10.49;70.76;102390.84;1926855;74;21195;-60
2022/12/31 03:38:43;;;;;;;2.52;1.22;;;;;;;10.52;70.84;102392.13;1893550;76;21032;-59
2022/12/31 03:41:12;;;;;;;4.03;1.17;;;;;;;10.55;70.85;102381.53;1894060;76;21126;-58
2022/12/31 03:43:40;;;;;;;7.45;2.10;;;;;;;10.55;70.95;102382.43;1893905;76;21133;-58
2022/12/31 03:46:10;;;;;;;3.40;1.50;;;;;;;10.57;70.85;102390.32;1893898;76;21516;-58
2022/12/31 03:48:38;;;;;;;2.58;1.05;;;;;;;10.57;70.84;102389.00;1893739;76;21099;-58
2022/12/31 03:51:07;;;;;;;3.65;1.10;;;;;;;10.58;70.95;102386.78;1893966;76;21115;-57
2022/12/31 03:53:36;;;;;;;3.70;1.65;;;;;;;10.59;70.95;102397.30;1893900;76;21142;-58
2022/12/31 03:56:05;;;;;;;4.80;1.57;;;;;;;10.61;70.93;102389.38;1893885;76;21126;-56
2022/12/31 03:58:34;;;;;;;7.42;1.72;;;;;;;10.62;70.86;102397.69;1893911;76;21048;-57
2022/12/31 04:01:02;;;;;;;4.90;1.57;;;;;;;10.62;70.90;102397.27;1887610;75;21190;-58
2022/12/31 04:03:31;;;;;;;4.00;2.12;;;;;;;10.63;70.88;102391.09;1863938;77;21119;-57
2022/12/31 04:06:00;;;;;;;2.60;1.40;;;;;;;10.65;70.91;102398.98;1863981;77;21455;-57
2022/12/31 04:08:28;;;;;;;5.08;1.62;;;;;;;10.66;70.95;102395.89;1863891;77;21197;-56
2022/12/31 04:10:57;;;;;;;4.92;2.10;;;;;;;10.67;70.96;102398.52;1863909;77;21109;-56
2022/12/31 04:13:26;;;;;;;3.67;1.47;;;;;;;10.69;70.96;102397.18;1863855;77;21060;-57
2022/12/31 04:15:54;;;;;;;13.70;1.77;;;;;;;10.70;70.96;102396.30;1863854;77;21142;-56
2022/12/31 04:18:23;;;;;;;5.15;1.90;;;;;;;10.70;70.96;102394.53;1896445;74;21044;-57
2022/12/31 04:20:51;;;;;;;9.10;1.60;;;;;;;10.73;70.97;102389.66;1895732;76;21012;-56
2022/12/31 04:23:20;;;;;;;5.33;1.77;;;;;;;10.75;70.96;102392.72;1895704;76;21084;-56
2022/12/31 04:25:49;;;;;;;5.62;2.02;;;;;;;10.76;70.92;102392.26;1895733;76;21115;-57
2022/12/31 04:28:18;;;;;;;4.00;1.52;;;;;;;10.77;70.90;102395.30;1895629;76;21107;-57
2022/12/31 04:30:46;;;;;;;4.60;1.82;;;;;;;10.76;70.94;102393.13;1895867;76;21094;-57
2022/12/31 04:33:15;;;;;;;4.83;1.72;;;;;;;10.78;70.98;102396.60;1895780;76;21047;-57
2022/12/31 04:35:44;;;;;;;6.12;1.90;;;;;;;10.79;70.96;102394.86;1895904;76;21138;-56
2022/12/31 04:38:13;;;;;;;5.10;1.80;;;;;;;10.80;70.90;102392.63;1895737;76;21052;-55
2022/12/31 04:43:28;;;;;;;6.85;2.33;;;;;;;10.81;71.00;102399.20;1889495;75;21155;-56
2022/12/31 04:45:57;;;;;;;4.67;1.72;;;;;;;10.84;70.97;102394.78;1895282;75;21127;-55
2022/12/31 04:48:25;;;;;;;7.92;1.87;;;;;;;10.83;71.00;102393.92;1897552;75;21023;-56
2022/12/31 04:50:54;;;;;;;4.22;1.87;;;;;;;10.81;71.01;102397.89;1897562;75;21047;-58
2022/12/31 04:53:23;;;;;;;5.47;1.95;;;;;;;10.82;71.08;102396.12;1892611;75;21196;-57
2022/12/31 04:55:52;;;;;;;6.58;2.08;;;;;;;10.81;71.17;102399.20;1876263;75;21149;-57
2022/12/31 04:58:22;;;;;;;7.53;2.27;;;;;;;10.82;71.31;102402.70;1891170;75;21059;-59
2022/12/31 05:00:53;;;;;;;7.25;1.90;;;;;;;10.82;71.25;102396.98;1896768;75;21542;-60
2022/12/31 05:03:24;;;;;;;4.90;2.05;;;;;;;10.84;71.22;102396.97;1877172;75;21209;-59
2022/12/31 05:05:54;;;;;;;7.12;2.33;;;;;;;10.84;71.25;102402.69;1893297;75;21019;-60
2022/12/31 05:08:22;;;;;;;7.70;2.50;;;;;;;10.85;71.17;102405.77;1880100;75;21048;-58
2022/12/31 05:10:51;;;;;;;5.75;2.15;;;;;;;10.84;71.11;102402.69;1897595;75;21067;-59
2022/12/31 05:13:20;;;;;;;7.03;2.33;;;;;;;10.84;71.08;102403.55;1897452;75;21086;-59
2022/12/31 05:15:48;;;;;;;5.47;2.70;;;;;;;10.82;71.06;102414.11;1892624;75;21020;-58
2022/12/31 05:18:18;;;;;;;5.83;2.77;;;;;;;10.82;71.04;102411.47;1872128;75;21084;-55
2022/12/31 05:20:47;;;;;;;8.28;3.30;;;;;;;10.81;71.03;102412.38;1871188;75;21558;-56
2022/12/31 05:23:17;;;;;;;9.20;3.83;;;;;;;10.81;71.03;102413.70;1877736;75;21251;-54
2022/12/31 05:25:47;;;;;;;9.55;3.00;;;;;;;10.82;71.07;102412.79;1888730;75;21600;-56
2022/12/31 05:28:16;;;;;;;5.55;2.95;;;;;;;10.82;71.16;102415.42;1886306;75;22172;-56
2022/12/31 05:30:46;;;;;;;5.83;3.30;;;;;;;10.82;71.22;102417.20;1871762;75;21648;-58
2022/12/31 05:33:15;;;;;;;8.18;3.65;;;;;;;10.84;71.38;102419.36;1888301;75;21065;-57
2022/12/31 05:35:44;;;;;;;7.80;3.45;;;;;;;10.85;71.45;102409.27;1877450;75;21186;-57
2022/12/31 05:38:12;;;;;;;10.45;3.33;;;;;;;10.87;71.67;102419.78;1878640;75;21158;-56
2022/12/31 05:40:41;;;;;;;7.08;3.98;;;;;;;10.87;71.65;102427.69;1882034;75;21176;-55
2022/12/31 05:43:10;;;;;;;13.80;4.17;;;;;;;10.87;71.54;102429.87;1865330;75;21098;-55
2022/12/31 05:45:38;;;;;;;9.63;3.47;;;;;;;10.88;71.51;102432.05;1865568;75;21106;-55
2022/12/31 05:48:07;;;;;;;6.37;2.37;;;;;;;10.87;71.52;102431.19;1865571;75;21091;-55
2022/12/31 05:50:36;;;;;;;6.03;2.92;;;;;;;10.87;71.54;102428.55;1873219;75;21056;-56
2022/12/31 05:53:04;;;;;;;12.45;5.42;;;;;;;10.86;71.78;102421.53;1897590;75;21027;-56
2022/12/31 05:55:33;;;;;;;12.93;4.67;;;;;;;10.88;72.01;102428.09;1897288;75;21056;-57
2022/12/31 05:58:02;;;;;;;10.32;3.90;;;;;;;10.88;72.08;102426.78;1897236;75;21185;-56
2022/12/31 06:00:31;;;;;;;10.43;4.80;;;;;;;10.87;72.17;102430.33;1895940;75;21126;-56
2022/12/31 06:02:59;;;;;;;11.30;5.25;;;;;;;10.88;72.19;102437.33;1865921;75;21094;-56
2022/12/31 06:05:28;;;;;;;8.75;4.45;;;;;;;10.87;72.04;102440.88;1865357;77;21094;-56
2022/12/31 06:07:57;;;;;;;14.28;4.70;;;;;;;10.88;72.01;102453.14;1865657;75;21145;-56
2022/12/31 06:10:25;;;;;;;12.28;4.65;;;;;;;10.88;72.27;102459.30;1871625;75;21471;-56
2022/12/31 06:12:54;;;;;;;13.90;4.65;;;;;;;10.87;72.31;102460.18;1894670;75;21113;-55
2022/12/31 06:15:23;;;;;;;10.53;4.28;;;;;;;10.90;72.32;102461.89;1897377;75;21027;-55
2022/12/31 06:17:51;;;;;;;10.13;4.20;;;;;;;10.91;72.34;102467.15;1868898;75;21129;-56
2022/12/31 06:20:20;;;;;;;12.03;5.10;;;;;;;10.94;72.32;102468.89;1865474;75;21132;-54
2022/12/31 06:22:48;;;;;;;10.80;4.92;;;;;;;10.97;72.24;102475.00;1872310;75;21149;-56
2022/12/31 06:25:17;;;;;;;13.10;5.90;;;;;;;11.00;72.21;102481.98;1877477;75;21051;-55
2022/12/31 06:27:46;;;;;;;13.60;6.37;;;;;;;11.03;72.15;102483.69;1865306;77;21027;-56
2022/12/31 06:30:14;;;;;;;15.83;6.40;;;;;;;11.05;72.12;102483.22;1897248;75;21122;-58
2022/12/31 06:32:43;;;;;;;16.40;6.70;;;;;;;11.06;72.10;102485.84;1897492;75;21601;-57
2022/12/31 06:35:12;;;;;;;19.15;7.83;;;;;;;11.09;72.08;102485.81;1895052;75;21063;-58
2022/12/31 06:37:40;;;;;;;13.93;6.65;;;;;;;11.11;72.15;102494.57;1896850;75;21098;-57
2022/12/31 06:40:10;;;;;;;21.20;8.65;;;;;;;11.10;72.06;102488.89;1867064;75;21043;-57
2022/12/31 06:42:41;;;;;;;17.37;7.58;;;;;;;11.08;72.05;102492.42;1897559;75;21114;-57
2022/12/31 06:45:10;;;;;;;18.50;7.10;;;;;;;11.04;72.01;102481.04;1891247;75;21498;-57
2022/12/31 06:47:38;;;;;;;16.45;7.95;;;;;;;11.01;71.96;102488.98;1882220;75;21067;-57
2022/12/31 06:50:08;;;;;;;15.35;6.92;;;;;;;11.02;72.04;102482.83;1865550;75;21145;-57
2022/12/31 06:52:36;;;;;;;11.97;6.12;;;;;;;11.33;71.98;102487.69;1893717;75;21490;-56
2022/12/31 06:55:06;;;;;;;14.95;7.10;;;;;;;12.33;70.17;102479.48;1882889;75;21113;-58
2022/12/31 06:57:35;;;;;;;13.62;7.45;;;;;;;12.82;68.97;102473.23;1892430;75;21060;-55
2022/12/31 07:00:05;;;;;;;8.43;4.47;;;;;;;13.27;67.91;102480.20;1890910;75;21121;-55
2022/12/31 07:02:59;;;;;;;14.43;6.05;;;;;;;13.96;66.48;102479.92;1865240;76;21091;-55
2022/12/31 07:05:33;;;;;;;12.85;5.75;;;;;;;14.38;65.38;102477.48;1864074;77;21560;-55
2022/12/31 07:08:31;;;;;;;15.23;7.35;;;;;;;14.60;64.70;102468.52;1865424;77;21208;-55
2022/12/31 07:11:28;;;;;;;15.98;6.30;;;;;;;15.34;63.57;102464.52;1864997;77;21134;-55
2022/12/31 07:14:08;;;;;;;10.55;5.20;;;;;;;16.29;60.85;102463.16;1894076;75;21060;-57
2022/12/31 07:16:45;;;;;;;17.00;6.60;;;;;;;17.04;59.24;102465.29;1913916;74;21651;-58
2022/12/31 07:19:23;;;;;;;11.83;6.22;;;;;;;17.45;57.08;102453.02;1930878;74;21058;-59
2022/12/31 07:21:53;;;;;;;13.00;5.85;;;;;;;17.78;55.34;102466.31;1929969;74;21646;-58
2022/12/31 07:24:23;;;;;;;14.25;6.33;;;;;;;18.09;53.17;102464.13;1930840;74;21085;-58
2022/12/31 07:27:10;;;;;;;12.15;7.20;;;;;;;18.48;53.00;102468.62;1904138;74;21082;-58
2022/12/31 07:29:57;;;;;;;12.65;7.65;;;;;;;18.99;51.65;102470.80;1894607;75;21125;-58
2022/12/31 07:32:50;;;;;;;14.43;6.78;;;;;;;19.01;49.52;102478.25;1897650;75;21040;-58
2022/12/31 07:35:37;;;;;;;11.80;5.60;;;;;;;19.10;49.21;102473.81;1895339;74;21145;-57
2022/12/31 07:38:21;;;;;;;14.10;6.25;;;;;;;19.21;48.63;102470.16;1903935;74;21133;-58
2022/12/31 07:44:02;;;;;;;10.88;5.30;;;;;;;19.53;46.56;102466.41;1892815;74;20225;-58
2022/12/31 07:46:34;;;;;;;14.75;5.60;;;;;;;19.72;46.58;102468.17;1891666;76;21112;-57
2022/12/31 07:49:06;;;;;;;9.90;5.97;;;;;;;20.04;45.43;102463.87;1876379;75;21062;-57
2022/12/31 07:51:35;;;;;;;12.03;6.80;;;;;;;20.53;45.02;102468.45;1881039;76;21027;-57
2022/12/31 07:54:04;;;;;;;11.45;7.00;;;;;;;20.68;44.00;102458.77;1894208;76;21084;-58
2022/12/31 07:56:33;;;;;;;9.73;5.53;;;;;;;20.78;43.60;102472.87;1864688;76;21038;-57
2022/12/31 07:59:23;;;;;;;12.20;6.25;;;;;;;20.98;43.40;102468.24;1871506;76;21116;-58
2022/12/31 08:02:04;;;;;;;11.43;5.95;;;;;;;21.34;41.74;102461.73;1874473;74;21382;-59
2022/12/31 08:04:44;;;;;;;13.43;7.10;;;;;;;21.51;42.22;102463.02;1879982;76;21113;-60
2022/12/31 08:07:45;;;;;;;14.63;6.35;;;;;;;22.17;42.01;102463.12;1874944;76;21401;-60
2022/12/31 08:10:19;;;;;;;9.40;4.55;;;;;;;22.62;42.37;102472.95;1880465;76;21023;-60
2022/12/31 08:12:50;;;;;;;15.23;6.70;;;;;;;22.95;42.01;102468.61;1895491;74;21043;-57
2022/12/31 08:15:19;;;;;;;11.50;5.83;;;;;;;23.39;40.92;102464.02;1895429;76;21203;-57
2022/12/31 08:17:48;;;;;;;13.83;6.60;;;;;;;23.76;40.66;102462.41;1895633;76;21473;-57
2022/12/31 08:20:18;;;;;;;13.38;6.78;;;;;;;23.74;38.75;102462.99;1895856;76;21086;-59
2022/12/31 08:23:13;;;;;;;11.38;6.58;;;;;;;22.84;39.28;102463.06;1896236;76;21477;-56
2022/12/31 08:25:54;;;;;;;12.03;6.67;;;;;;;22.41;40.44;102467.08;1896047;74;21757;-57
2022/12/31 08:28:53;;;;;;;13.45;6.75;;;;;;;22.41;40.83;102468.42;1895586;75;21229;-56
2022/12/31 08:31:24;;;;;;;16.00;7.05;;;;;;;21.32;42.37;102463.20;1896271;76;21460;-57
2022/12/31 08:34:14;;;;;;;13.58;7.03;;;;;;;22.10;41.74;102473.83;1893691;75;21520;-59
2022/12/31 08:36:52;;;;;;;14.30;7.05;;;;;;;21.64;41.84;102466.33;1822981;78;21522;-60
2022/12/31 08:39:41;;;;;;;13.10;6.83;;;;;;;20.06;43.15;102478.88;1879361;76;21505;-59
2022/12/31 08:42:16;;;;;;;16.40;7.95;;;;;;;18.74;45.10;102479.92;1890555;74;21521;-59
2022/12/31 08:44:53;;;;;;;15.98;7.58;;;;;;;17.80;46.61;102477.33;1861759;76;21118;-57
2022/12/31 08:47:33;;;;;;;16.57;7.83;;;;;;;17.22;47.73;102480.54;1873017;74;21056;-57
2022/12/31 08:50:03;;;;;;;13.53;7.58;;;;;;;16.90;48.63;102476.01;1835330;76;21072;-56
2022/12/31 08:52:32;;;;;;;16.73;8.18;;;;;;;16.57;49.25;102478.97;1881471;76;21039;-57
2022/12/31 08:55:01;;;;;;;15.00;7.62;;;;;;;16.58;49.58;102475.39;1886303;76;21132;-57
2022/12/31 08:57:36;;;;;;;18.48;7.87;;;;;;;16.74;49.52;102474.81;1864472;76;21059;-57
2022/12/31 09:00:08;;;;;;;14.93;6.58;;;;;;;17.10;48.53;102475.25;1849578;77;21075;-56
2022/12/31 09:03:01;;;;;;;11.63;5.95;;;;;;;17.06;48.58;102470.09;1867094;75;21494;-56
2022/12/31 09:05:44;;;;;;;13.83;7.12;;;;;;;16.84;49.02;102468.70;1886191;76;21039;-56
2022/12/31 09:08:39;;;;;;;10.08;5.85;;;;;;;16.86;49.21;102467.75;1883902;76;21039;-55
2022/12/31 09:11:16;;;;;;;12.58;6.10;;;;;;;16.68;49.59;102451.13;1824523;77;21553;-60
2022/12/31 09:14:06;;;;;;;14.95;7.37;;;;;;;16.60;49.68;102466.89;1872719;75;21075;-59
2022/12/31 09:16:50;;;;;;;12.55;5.95;;;;;;;16.49;50.06;102478.39;1884788;76;21559;-59
2022/12/31 09:19:20;;;;;;;14.47;6.65;;;;;;;18.00;47.83;102477.84;1884374;76;21055;-60
2022/12/31 09:21:49;;;;;;;18.95;7.50;;;;;;;18.75;46.37;102469.63;1878108;75;21102;-57
2022/12/31 09:24:18;;;;;;;20.90;8.50;;;;;;;18.09;47.00;102472.12;1874516;75;21040;-57
2022/12/31 09:27:20;;;;;;;14.95;7.92;;;;;;;17.15;48.41;102479.05;1860043;76;21007;-57
2022/12/31 09:30:04;;;;;;;15.48;8.15;;;;;;;16.41;50.01;102481.77;1821746;78;21090;-58
2022/12/31 09:32:53;;;;;;;18.25;6.78;;;;;;;15.88;51.29;102484.06;1847423;77;21529;-58
2022/12/31 09:35:49;;;;;;;16.05;7.70;;;;;;;15.72;51.81;102481.00;1859100;76;21568;-59
2022/12/31 09:38:26;;;;;;;15.93;7.35;;;;;;;15.43;52.56;102483.27;1886096;76;21492;-57
2022/12/31 09:41:00;;;;;;;15.48;6.85;;;;;;;15.25;53.07;102485.59;1865449;75;21569;-58
2022/12/31 09:43:51;;;;;;;14.33;7.72;;;;;;;15.20;53.35;102480.02;1886144;75;21560;-58
2022/12/31 09:46:48;;;;;;;16.45;8.08;;;;;;;15.03;53.71;102489.36;1874667;76;21148;-57
2022/12/31 09:49:25;;;;;;;18.17;8.30;;;;;;;14.77;54.22;102487.91;1893755;76;21096;-56
2022/12/31 09:52:14;;;;;;;14.45;6.70;;;;;;;14.54;54.89;102496.03;1893951;75;21810;-58
2022/12/31 09:54:52;;;;;;;16.45;7.95;;;;;;;14.39;55.37;102493.81;1888011;76;21026;-56
2022/12/31 09:57:32;;;;;;;14.45;6.65;;;;;;;14.26;55.64;102491.48;1885606;74;21112;-56
2022/12/31 10:00:04;;;;;;;18.37;7.85;;;;;;;14.15;56.01;102482.95;1886610;75;21043;-59
2022/12/31 10:02:58;;;;;;;17.20;8.03;;;;;;;14.10;56.09;102498.09;1885169;75;21521;-58
2022/12/31 10:05:44;;;;;;;15.95;7.37;;;;;;;13.94;56.77;102494.09;1885525;75;21109;-57
2022/12/31 10:08:19;;;;;;;16.82;7.90;;;;;;;13.88;57.00;102498.63;1886249;76;21118;-55
2022/12/31 10:10:56;;;;;;;16.02;7.25;;;;;;;13.89;57.02;102499.52;1847186;76;21039;-56
2022/12/31 10:13:39;;;;;;;19.98;6.22;;;;;;;13.89;57.18;102499.05;1889310;75;21039;-60
2022/12/31 10:16:17;;;;;;;14.53;7.45;;;;;;;13.90;57.19;102499.45;1887050;74;21109;-57
2022/12/31 10:18:54;;;;;;;13.85;6.85;;;;;;;13.85;57.53;102496.07;1886301;74;21075;-57
2022/12/31 10:21:50;;;;;;;16.87;7.60;;;;;;;13.74;57.96;102488.85;1886432;75;21034;-56
2022/12/31 10:24:49;;;;;;;14.40;7.08;;;;;;;13.67;58.29;102491.22;1875557;76;21628;-56
2022/12/31 10:27:23;;;;;;;15.98;7.85;;;;;;;13.58;58.69;102492.30;1886500;75;21047;-55
2022/12/31 10:30:18;;;;;;;19.10;7.85;;;;;;;13.50;58.94;102488.52;1885787;76;21115;-58
2022/12/31 10:33:19;;;;;;;21.23;9.15;;;;;;;13.47;59.30;102489.91;1886378;76;21121;-58
2022/12/31 10:36:03;;;;;;;16.75;7.22;;;;;;;13.45;59.60;102495.69;1862221;76;21143;-59
2022/12/31 10:38:40;;;;;;;15.30;7.33;;;;;;;13.46;59.63;102500.09;1885506;75;21109;-56
2022/12/31 10:41:40;;;;;;;12.78;6.17;;;;;;;13.51;59.57;102502.16;1886778;75;21062;-59
2022/12/31 10:44:26;;;;;;;20.60;8.15;;;;;;;13.50;59.66;102495.14;1893676;74;21072;-58
2022/12/31 10:47:20;;;;;;;23.77;8.65;;;;;;;13.48;59.69;102498.28;1864993;74;21157;-56
2022/12/31 10:49:52;;;;;;;16.25;7.42;;;;;;;13.44;59.88;102493.94;1922991;74;21121;-56
2022/12/31 10:52:30;;;;;;;18.15;7.60;;;;;;;13.38;60.10;102497.20;1876458;75;21126;-57
2022/12/31 10:55:07;;;;;;;17.15;7.62;;;;;;;13.36;60.19;102494.58;1878478;76;21075;-56
2022/12/31 10:57:48;;;;;;;16.73;8.95;;;;;;;13.37;60.26;102495.44;1882778;74;21584;-58
2022/12/31 11:00:25;;;;;;;19.40;9.15;;;;;;;13.25;60.66;102493.92;1876847;74;21178;-57
2022/12/31 11:03:06;;;;;;;18.77;8.58;;;;;;;13.23;60.64;102507.17;1880931;76;21533;-55
2022/12/31 11:05:58;;;;;;;16.67;7.92;;;;;;;13.21;60.81;102513.42;1910774;74;21105;-55
2022/12/31 11:08:51;;;;;;;22.87;9.33;;;;;;;13.18;60.83;102514.80;1928783;74;21557;-57
2022/12/31 11:11:38;;;;;;;18.10;8.10;;;;;;;13.16;61.01;102518.79;1915791;74;21099;-58
2022/12/31 11:14:27;;;;;;;18.65;8.88;;;;;;;13.11;61.15;102525.52;1895707;76;21064;-58
2022/12/31 11:17:21;;;;;;;23.55;9.93;;;;;;;13.06;61.15;102514.16;1883908;76;21510;-59
2022/12/31 11:19:52;;;;;;;21.17;10.18;;;;;;;13.04;61.48;102521.69;1873568;74;21076;-58
2022/12/31 11:22:36;;;;;;;18.37;8.70;;;;;;;12.98;61.65;102517.86;1928411;73;21079;-57
2022/12/31 11:25:31;;;;;;;21.93;10.00;;;;;;;12.93;61.90;102519.29;1917743;74;21007;-59
2022/12/31 11:28:22;;;;;;;17.52;8.58;;;;;;;12.95;61.90;102513.52;1928789;74;21082;-58
2022/12/31 11:31:06;;;;;;;14.45;6.42;;;;;;;12.89;62.06;102510.55;1928854;74;21054;-58
2022/12/31 11:33:57;;;;;;;21.52;10.88;;;;;;;12.83;62.40;102518.58;1928495;74;21050;-57
2022/12/31 11:36:59;;;;;;;16.07;8.43;;;;;;;12.79;62.61;102523.98;1928944;74;21540;-56
2022/12/31 11:39:30;;;;;;;27.15;10.10;;;;;;;12.74;62.89;102521.41;1929046;74;21130;-55
2022/12/31 11:42:21;;;;;;;13.60;5.42;;;;;;;12.69;62.97;102521.52;1928063;74;21121;-57
2022/12/31 11:44:53;;;;;;;19.10;9.28;;;;;;;12.62;63.19;102509.31;1920751;74;21538;-56
2022/12/31 11:47:24;;;;;;;18.35;8.68;;;;;;;12.57;63.32;102512.95;1889092;76;21051;-57
2022/12/31 11:49:58;;;;;;;21.97;9.75;;;;;;;12.53;63.58;102514.78;1828301;76;21047;-57
2022/12/31 11:53:01;;;;;;;20.32;8.55;;;;;;;12.51;63.53;102509.52;1888831;75;21230;-58
2022/12/31 11:55:49;;;;;;;19.87;8.30;;;;;;;12.52;63.48;102509.06;1863562;76;21093;-56
2022/12/31 11:58:20;;;;;;;17.67;7.10;;;;;;;12.47;63.57;102512.27;1888771;76;21481;-57
2022/12/31 12:01:15;;;;;;;22.35;9.15;;;;;;;12.45;63.62;102514.03;1895744;75;21159;-57
2022/12/31 12:03:54;;;;;;;18.52;9.55;;;;;;;12.44;63.66;102520.23;1873828;76;21321;-57
2022/12/31 12:06:29;;;;;;;25.68;11.83;;;;;;;12.43;63.75;102513.19;1824006;77;21056;-59
2022/12/31 12:09:00;;;;;;;17.82;8.78;;;;;;;12.43;63.82;102519.38;1825389;77;21039;-61
2022/12/31 12:11:32;;;;;;;21.07;8.38;;;;;;;12.46;63.78;102517.11;1856339;76;21363;-62